Time;durP1;ratioP1;P1;durP2;ratioP2;P2;SDS_P1;SDS_P2;PMS_P1;PMS_P2;Temp;Humidity;BMP_temperature;BMP_pressure;BME280_temperature;BME280_humidity;BME280_pressure;Samples;Min_cycle;Max_cycle;Signal;HPM_P1;HPM_P2
2021/08/04 00:01:46;;;;;;;7.32;4.32;;;14.30;99.90;;;;;;5059702;28;20036;-74
2021/08/04 00:04:12;;;;;;;6.55;4.05;;;14.30;99.90;;;;;;5062808;28;20058;-73
2021/08/04 00:06:38;;;;;;;6.53;4.10;;;14.20;99.90;;;;;;5073533;28;20104;-73
2021/08/04 00:09:05;;;;;;;4.50;3.40;;;14.20;99.90;;;;;;5077461;28;20127;-73
2021/08/04 00:11:35;;;;;;;5.50;3.65;;;14.10;99.90;;;;;;5079252;28;20059;-73
2021/08/04 00:14:02;;;;;;;5.95;4.28;;;14.10;99.90;;;;;;5068521;28;20040;-73
2021/08/04 00:16:28;;;;;;;6.43;4.07;;;14.00;99.90;;;;;;5071222;28;20040;-74
2021/08/04 00:18:54;;;;;;;6.93;3.78;;;14.00;99.90;;;;;;5064018;28;20260;-74
2021/08/04 00:21:20;;;;;;;5.10;3.88;;;13.90;99.90;;;;;;5074234;28;20236;-74
2021/08/04 00:23:46;;;;;;;8.18;5.07;;;13.90;99.90;;;;;;5052799;28;20072;-74
2021/08/04 00:26:12;;;;;;;7.53;4.05;;;13.90;99.90;;;;;;5051624;28;20138;-74
2021/08/04 00:28:41;;;;;;;7.55;5.43;;;13.90;99.90;;;;;;5074517;28;20127;-74
2021/08/04 00:31:07;;;;;;;6.97;4.80;;;13.90;99.90;;;;;;5050350;28;20808;-74
2021/08/04 00:33:33;;;;;;;6.03;4.63;;;13.90;99.90;;;;;;5072727;28;20127;-75
2021/08/04 00:35:59;;;;;;;7.90;5.00;;;13.90;99.90;;;;;;5056781;28;20043;-74
2021/08/04 00:38:25;;;;;;;6.47;4.30;;;13.90;99.90;;;;;;5058744;28;20039;-74
2021/08/04 00:40:52;;;;;;;7.15;4.88;;;13.90;99.90;;;;;;5073325;28;20337;-74
2021/08/04 00:43:18;;;;;;;5.38;4.55;;;13.90;99.90;;;;;;5046000;28;20040;-74
2021/08/04 00:45:44;;;;;;;5.00;4.20;;;13.80;99.90;;;;;;5051381;28;20063;-74
2021/08/04 00:48:10;;;;;;;5.55;4.20;;;13.80;99.90;;;;;;5070701;28;20048;-74
2021/08/04 00:50:47;;;;;;;7.22;4.78;;;13.80;99.90;;;;;;5076039;28;20098;-73
2021/08/04 00:53:21;;;;;;;6.75;5.10;;;13.80;99.90;;;;;;5047670;28;20075;-74
2021/08/04 00:55:48;;;;;;;7.13;4.60;;;13.80;99.90;;;;;;5072040;28;20043;-74
2021/08/04 00:58:15;;;;;;;6.75;4.63;;;13.80;99.90;;;;;;5073052;28;20068;-75
2021/08/04 01:00:50;;;;;;;7.20;4.78;;;13.80;99.90;;;;;;5072800;28;20037;-75
2021/08/04 01:03:19;;;;;;;5.38;4.70;;;13.80;99.90;;;;;;5074604;28;20048;-74
2021/08/04 01:05:55;;;;;;;5.80;4.40;;;13.70;99.90;;;;;;5071813;28;20515;-74
2021/08/04 01:08:34;;;;;;;7.72;4.88;;;13.70;99.90;;;;;;5071783;28;20174;-74
2021/08/04 01:11:04;;;;;;;6.88;4.70;;;13.70;99.90;;;;;;5072492;28;20040;-74
2021/08/04 01:13:35;;;;;;;6.38;5.13;;;13.70;99.90;;;;;;5051834;28;20588;-72
2021/08/04 01:16:09;;;;;;;6.22;5.00;;;13.80;99.90;;;;;;5073313;28;20044;-72
2021/08/04 01:18:46;;;;;;;7.68;5.50;;;13.70;99.90;;;;;;5072150;28;20044;-73
2021/08/04 01:21:13;;;;;;;6.60;4.93;;;13.80;99.90;;;;;;5072378;28;20437;-73
2021/08/04 01:24:00;;;;;;;7.65;5.90;;;13.80;99.90;;;;;;5050701;28;20044;-73
2021/08/04 01:26:34;;;;;;;6.05;5.43;;;13.80;99.90;;;;;;5071963;28;20718;-73
2021/08/04 01:29:01;;;;;;;8.00;5.60;;;13.80;99.90;;;;;;5081797;28;20493;-74
2021/08/04 01:31:30;;;;;;;7.65;5.75;;;13.80;99.90;;;;;;5067020;28;20696;-74
2021/08/04 01:33:58;;;;;;;8.20;6.15;;;13.80;99.90;;;;;;5068721;28;20033;-73
2021/08/04 01:36:25;;;;;;;10.50;6.22;;;13.80;99.90;;;;;;5078550;28;20673;-74
2021/08/04 01:38:52;;;;;;;8.13;6.13;;;13.80;99.90;;;;;;5072013;28;20508;-74
2021/08/04 01:41:20;;;;;;;7.85;6.25;;;13.70;99.90;;;;;;5054213;28;20032;-73
2021/08/04 01:43:50;;;;;;;10.02;5.88;;;13.70;99.90;;;;;;5068856;28;20044;-75
2021/08/04 01:46:17;;;;;;;9.13;6.03;;;13.80;99.90;;;;;;5068408;28;20050;-74
2021/08/04 01:48:43;;;;;;;8.75;6.35;;;13.80;99.90;;;;;;5028351;28;20056;-74
2021/08/04 01:51:11;;;;;;;6.68;5.60;;;13.80;99.90;;;;;;5074618;28;20250;-74
2021/08/04 01:53:40;;;;;;;9.18;5.85;;;13.80;99.90;;;;;;5066509;28;20051;-73
2021/08/04 01:56:07;;;;;;;7.43;5.97;;;13.80;99.90;;;;;;5070210;28;20553;-72
2021/08/04 01:58:34;;;;;;;7.10;5.03;;;13.80;99.90;;;;;;5053277;28;20054;-73
2021/08/04 02:01:00;;;;;;;6.38;5.55;;;13.80;99.90;;;;;;5071086;28;20115;-73
2021/08/04 02:03:26;;;;;;;8.20;5.95;;;13.80;99.90;;;;;;5057069;28;20178;-73
2021/08/04 02:05:52;;;;;;;6.38;5.22;;;13.80;99.90;;;;;;5078840;28;20043;-73
2021/08/04 02:08:30;;;;;;;6.68;5.47;;;13.80;99.90;;;;;;5073185;28;20032;-73
2021/08/04 02:11:08;;;;;;;7.20;5.72;;;13.80;99.90;;;;;;5080941;28;20045;-74
2021/08/04 02:13:55;;;;;;;8.68;5.80;;;13.90;99.90;;;;;;5072596;28;20045;-73
2021/08/04 02:16:51;;;;;;;10.73;5.82;;;13.80;99.90;;;;;;5072849;28;20051;-73
2021/08/04 02:19:27;;;;;;;9.02;5.07;;;13.80;99.90;;;;;;5075602;28;20119;-74
2021/08/04 02:21:58;;;;;;;6.80;5.20;;;13.80;99.90;;;;;;5075291;28;20115;-73
2021/08/04 02:24:27;;;;;;;9.13;5.70;;;13.80;99.90;;;;;;5079122;28;20115;-74
2021/08/04 02:26:58;;;;;;;7.13;5.50;;;13.70;99.90;;;;;;5062910;28;20044;-75
2021/08/04 02:29:25;;;;;;;8.80;6.07;;;13.70;99.90;;;;;;5078385;28;20044;-72
2021/08/04 02:31:51;;;;;;;7.30;5.53;;;13.70;99.90;;;;;;5061751;28;20032;-74
2021/08/04 02:34:19;;;;;;;8.57;5.07;;;13.70;99.90;;;;;;5081370;28;20052;-73
2021/08/04 02:36:45;;;;;;;7.07;5.65;;;13.70;99.90;;;;;;5072259;28;20051;-73
2021/08/04 02:39:11;;;;;;;6.53;5.50;;;13.70;99.90;;;;;;5070062;28;20427;-74
2021/08/04 02:41:37;;;;;;;6.32;5.18;;;13.70;99.90;;;;;;5078103;28;20086;-74
2021/08/04 02:44:04;;;;;;;7.25;5.28;;;13.70;99.90;;;;;;5064472;28;20063;-73
2021/08/04 02:46:31;;;;;;;8.23;5.70;;;13.70;99.90;;;;;;5078470;28;20055;-74
2021/08/04 02:48:58;;;;;;;9.07;5.82;;;13.70;99.90;;;;;;5045422;28;20072;-74
2021/08/04 02:51:24;;;;;;;7.80;5.68;;;13.70;99.90;;;;;;5066977;28;20032;-75
2021/08/04 02:53:55;;;;;;;8.50;5.55;;;13.70;99.90;;;;;;5079726;28;20123;-73
2021/08/04 02:56:21;;;;;;;8.07;5.63;;;13.70;99.90;;;;;;5065959;28;20090;-74
2021/08/04 02:58:47;;;;;;;7.10;5.30;;;13.70;99.90;;;;;;5074985;28;20351;-74
2021/08/04 03:01:13;;;;;;;8.35;5.60;;;13.70;99.90;;;;;;5067064;28;20127;-72
2021/08/04 03:03:39;;;;;;;6.28;5.35;;;13.80;99.90;;;;;;5045754;28;20482;-72
2021/08/04 03:06:05;;;;;;;8.13;5.35;;;13.70;99.90;;;;;;5042336;28;20036;-73
2021/08/04 03:08:31;;;;;;;10.45;5.65;;;13.70;99.90;;;;;;5054473;28;20162;-72
2021/08/04 03:10:57;;;;;;;8.10;5.28;;;13.70;99.90;;;;;;5054310;28;20040;-72
2021/08/04 03:13:24;;;;;;;7.50;5.05;;;13.60;99.90;;;;;;5058818;28;20060;-73
2021/08/04 03:15:50;;;;;;;8.13;5.57;;;13.60;99.90;;;;;;5074226;28;20494;-73
2021/08/04 03:18:16;;;;;;;7.20;5.78;;;13.60;99.90;;;;;;5077869;28;20033;-73
2021/08/04 03:20:42;;;;;;;6.80;5.50;;;13.60;99.90;;;;;;5057874;28;20052;-73
2021/08/04 03:23:07;;;;;;;6.78;5.18;;;13.60;99.90;;;;;;5080348;28;20036;-72
2021/08/04 03:25:33;;;;;;;7.63;5.47;;;13.60;99.90;;;;;;5081531;28;20101;-73
2021/08/04 03:27:59;;;;;;;8.75;6.20;;;13.60;99.90;;;;;;5071852;28;20036;-73
2021/08/04 03:30:25;;;;;;;6.97;5.43;;;13.60;99.90;;;;;;5044566;28;20578;-73
2021/08/04 03:32:52;;;;;;;7.88;5.30;;;13.60;99.90;;;;;;5077680;28;20039;-73
2021/08/04 03:35:17;;;;;;;7.88;5.00;;;13.50;99.90;;;;;;5072217;28;20670;-73
2021/08/04 03:37:43;;;;;;;8.05;6.03;;;13.50;99.90;;;;;;5078598;28;20044;-73
2021/08/04 03:40:10;;;;;;;8.10;5.47;;;13.50;99.90;;;;;;5058863;28;20092;-73
2021/08/04 03:42:36;;;;;;;9.25;5.90;;;13.50;99.90;;;;;;5067194;28;20509;-74
2021/08/04 03:45:03;;;;;;;7.75;5.95;;;13.50;99.90;;;;;;5057271;28;20036;-73
2021/08/04 03:47:29;;;;;;;7.97;5.45;;;13.50;99.90;;;;;;5062719;28;20040;-73
2021/08/04 03:49:59;;;;;;;7.93;5.38;;;13.50;99.90;;;;;;5073185;28;20033;-74
2021/08/04 03:52:25;;;;;;;7.75;4.63;;;13.50;99.90;;;;;;5073441;28;20042;-74
2021/08/04 03:54:51;;;;;;;9.80;5.38;;;13.50;99.90;;;;;;5074634;28;20036;-74
2021/08/04 03:57:17;;;;;;;6.75;5.10;;;13.40;99.90;;;;;;5064357;28;20051;-73
2021/08/04 03:59:43;;;;;;;9.95;6.15;;;13.40;99.90;;;;;;5072573;28;20040;-72
2021/08/04 04:02:09;;;;;;;7.22;5.28;;;13.40;99.90;;;;;;5075764;28;20396;-75
2021/08/04 04:04:35;;;;;;;7.53;5.03;;;13.40;99.90;;;;;;5084776;28;20044;-75
2021/08/04 04:07:01;;;;;;;6.10;4.60;;;13.40;99.90;;;;;;5066985;28;20062;-76
2021/08/04 04:09:29;;;;;;;7.75;5.68;;;13.40;99.90;;;;;;5087567;28;20051;-74
2021/08/04 04:12:03;;;;;;;6.90;5.70;;;13.40;99.90;;;;;;5079007;28;20107;-73
2021/08/04 04:14:29;;;;;;;8.00;5.25;;;13.40;99.90;;;;;;5068001;28;20044;-72
2021/08/04 04:16:56;;;;;;;6.88;5.32;;;13.40;99.90;;;;;;5050005;28;20138;-73
2021/08/04 04:19:22;;;;;;;9.05;5.90;;;13.40;99.90;;;;;;5081849;28;20115;-73
2021/08/04 04:21:48;;;;;;;6.90;5.53;;;13.40;99.90;;;;;;5079576;28;20040;-73
2021/08/04 04:24:14;;;;;;;6.82;5.18;;;13.40;99.90;;;;;;5074207;28;20056;-73
2021/08/04 04:26:40;;;;;;;7.25;5.38;;;13.40;99.90;;;;;;5070990;28;20048;-73
2021/08/04 04:29:06;;;;;;;7.15;5.30;;;13.40;99.90;;;;;;5080582;28;20077;-72
2021/08/04 04:31:34;;;;;;;7.97;5.80;;;13.40;99.90;;;;;;5081888;28;20102;-72
2021/08/04 04:34:03;;;;;;;7.90;5.50;;;13.40;99.90;;;;;;5065124;28;20445;-73
2021/08/04 04:36:28;;;;;;;7.68;5.57;;;13.50;99.90;;;;;;5076665;28;20276;-73
2021/08/04 04:38:54;;;;;;;6.85;5.07;;;13.50;99.90;;;;;;5081499;28;20497;-73
2021/08/04 04:41:20;;;;;;;6.47;5.72;;;13.50;99.90;;;;;;5081727;28;20036;-73
2021/08/04 04:43:47;;;;;;;8.98;5.30;;;13.50;99.90;;;;;;5082404;28;20089;-73
2021/08/04 04:46:13;;;;;;;9.15;5.90;;;13.60;99.90;;;;;;5081447;28;20048;-73
2021/08/04 04:48:41;;;;;;;6.45;4.30;;;13.60;99.90;;;;;;5073569;28;20472;-73
2021/08/04 04:51:08;;;;;;;6.05;4.75;;;13.60;99.90;;;;;;5077351;28;20040;-74
2021/08/04 04:53:34;;;;;;;6.53;4.72;;;13.60;99.90;;;;;;5067072;28;20494;-74
2021/08/04 04:55:59;;;;;;;6.15;4.45;;;13.70;99.90;;;;;;5073689;28;20123;-74
2021/08/04 04:58:25;;;;;;;6.95;4.93;;;13.70;99.90;;;;;;5060477;28;20406;-75
2021/08/04 05:00:52;;;;;;;6.32;4.32;;;13.70;99.90;;;;;;5076227;28;20064;-74
2021/08/04 05:03:17;;;;;;;5.75;4.18;;;13.80;99.90;;;;;;5075624;28;20047;-74
2021/08/04 05:05:43;;;;;;;7.15;4.13;;;13.80;99.90;;;;;;5065629;28;20032;-74
2021/08/04 05:08:09;;;;;;;5.22;4.20;;;13.80;99.90;;;;;;5065116;28;20038;-74
2021/08/04 05:10:35;;;;;;;5.45;4.22;;;13.80;99.90;;;;;;5061848;28;20406;-74
2021/08/04 05:13:04;;;;;;;5.53;3.92;;;13.90;99.90;;;;;;5064891;28;20036;-74
2021/08/04 05:15:33;;;;;;;5.85;3.90;;;13.90;99.90;;;;;;5060108;28;20483;-75
2021/08/04 05:17:59;;;;;;;6.78;4.10;;;13.90;99.90;;;;;;5077824;28;20697;-74
2021/08/04 05:20:25;;;;;;;6.00;3.78;;;14.00;99.90;;;;;;5077854;28;20047;-74
2021/08/04 05:22:51;;;;;;;5.70;3.67;;;14.00;99.90;;;;;;5080717;28;20040;-75
2021/08/04 05:25:17;;;;;;;6.05;3.83;;;14.10;99.90;;;;;;5058968;28;20394;-74
2021/08/04 05:27:43;;;;;;;7.28;3.92;;;14.20;99.90;;;;;;5071270;28;20052;-75
2021/08/04 05:30:15;;;;;;;5.10;3.45;;;14.20;99.90;;;;;;5076886;28;20538;-75
2021/08/04 05:32:42;;;;;;;5.28;3.75;;;14.30;99.90;;;;;;5075600;28;20600;-74
2021/08/04 05:35:08;;;;;;;5.65;3.60;;;14.30;99.90;;;;;;5081655;28;20044;-75
2021/08/04 05:37:34;;;;;;;6.72;3.67;;;14.30;99.90;;;;;;5078829;28;20123;-74
2021/08/04 05:40:00;;;;;;;5.20;3.72;;;14.40;99.90;;;;;;5079887;28;20136;-74
2021/08/04 05:42:30;;;;;;;5.03;3.40;;;14.40;99.90;;;;;;5079389;28;20487;-72
2021/08/04 05:44:57;;;;;;;6.93;3.50;;;14.50;99.90;;;;;;5064573;28;20054;-73
2021/08/04 05:47:23;;;;;;;5.50;3.50;;;14.50;99.90;;;;;;5077984;28;20503;-73
2021/08/04 05:49:49;;;;;;;5.57;3.33;;;14.60;99.90;;;;;;5074505;28;20093;-73
2021/08/04 05:52:15;;;;;;;5.07;2.72;;;14.70;99.90;;;;;;5079229;28;20044;-74
2021/08/04 05:54:41;;;;;;;5.32;2.97;;;14.70;99.90;;;;;;5067137;28;20090;-74
2021/08/04 05:57:07;;;;;;;7.63;2.70;;;14.80;99.90;;;;;;5065778;28;20059;-75
2021/08/04 05:59:33;;;;;;;4.03;2.22;;;14.90;99.90;;;;;;5071623;28;20628;-75
2021/08/04 06:01:59;;;;;;;5.80;2.75;;;14.90;99.90;;;;;;5058726;28;20032;-74
2021/08/04 06:04:25;;;;;;;4.57;2.28;;;15.00;99.90;;;;;;5061648;28;20043;-73
2021/08/04 06:06:51;;;;;;;4.05;2.45;;;15.10;99.90;;;;;;5087255;28;20042;-73
2021/08/04 06:09:17;;;;;;;3.60;2.47;;;15.20;99.90;;;;;;5080114;28;20032;-74
2021/08/04 06:11:43;;;;;;;4.00;2.00;;;15.20;99.90;;;;;;5069403;28;20669;-72
2021/08/04 06:14:12;;;;;;;4.72;2.50;;;15.30;99.90;;;;;;5083124;28;20062;-73
2021/08/04 06:16:38;;;;;;;4.25;1.85;;;15.40;99.90;;;;;;5078069;28;20041;-73
2021/08/04 06:19:12;;;;;;;4.15;2.17;;;15.50;99.90;;;;;;5077956;28;20036;-74
2021/08/04 06:21:38;;;;;;;4.63;2.00;;;15.60;99.90;;;;;;5055702;28;20051;-73
2021/08/04 06:24:04;;;;;;;2.58;1.73;;;15.70;99.90;;;;;;5077226;28;20032;-74
2021/08/04 06:26:33;;;;;;;2.88;1.83;;;15.70;99.90;;;;;;5065857;28;20029;-74
2021/08/04 06:29:00;;;;;;;3.53;1.77;;;15.80;99.90;;;;;;5056051;28;20052;-73
2021/08/04 06:31:26;;;;;;;3.65;1.80;;;15.90;99.90;;;;;;5060169;28;20379;-74
2021/08/04 06:33:52;;;;;;;4.88;2.17;;;16.00;99.90;;;;;;5078694;28;20062;-75
2021/08/04 06:36:19;;;;;;;2.55;1.52;;;16.00;99.90;;;;;;5058503;28;20071;-74
2021/08/04 06:38:45;;;;;;;3.78;1.60;;;16.10;99.40;;;;;;5065621;28;20040;-75
2021/08/04 06:41:11;;;;;;;2.70;1.52;;;16.30;98.20;;;;;;5084255;28;20054;-75
2021/08/04 06:43:43;;;;;;;1.90;1.40;;;16.30;98.00;;;;;;5069578;28;20045;-74
2021/08/04 06:46:11;;;;;;;3.30;1.70;;;16.40;97.70;;;;;;5062399;28;20687;-74
2021/08/04 06:48:37;;;;;;;2.70;1.60;;;16.50;97.20;;;;;;5076076;28;20049;-73
2021/08/04 06:51:06;;;;;;;3.63;1.60;;;16.50;96.10;;;;;;5067705;28;20113;-74
2021/08/04 06:53:32;;;;;;;3.25;1.52;;;16.50;96.10;;;;;;5077852;28;20394;-73
2021/08/04 06:55:58;;;;;;;4.82;1.30;;;16.60;96.50;;;;;;5090540;28;20035;-74
2021/08/04 06:58:24;;;;;;;4.03;1.60;;;16.60;96.80;;;;;;5087275;28;20041;-75
2021/08/04 07:00:49;;;;;;;3.88;1.38;;;16.70;97.10;;;;;;5047956;28;20094;-74
2021/08/04 07:03:15;;;;;;;3.17;1.23;;;16.70;96.40;;;;;;5078557;28;20044;-73
2021/08/04 07:05:41;;;;;;;2.03;1.00;;;16.70;96.20;;;;;;5076601;28;20055;-74
2021/08/04 07:08:07;;;;;;;3.72;1.40;;;16.80;96.50;;;;;;5059893;28;20113;-74
2021/08/04 07:10:34;;;;;;;2.55;1.25;;;16.80;96.40;;;;;;5069894;28;20526;-76
2021/08/04 07:13:00;;;;;;;2.55;1.00;;;16.80;96.00;;;;;;5072954;28;20045;-75
2021/08/04 07:15:26;;;;;;;2.60;1.10;;;16.90;95.80;;;;;;5062333;28;20440;-74
2021/08/04 07:17:52;;;;;;;1.95;1.15;;;16.90;95.30;;;;;;5089764;28;20090;-73
2021/08/04 07:20:21;;;;;;;3.28;1.35;;;16.90;95.20;;;;;;5078536;28;20041;-74
2021/08/04 07:22:51;;;;;;;2.75;1.00;;;16.90;95.50;;;;;;5084093;28;20047;-76
2021/08/04 07:25:17;;;;;;;2.22;1.15;;;17.00;95.60;;;;;;5073079;28;20385;-75
2021/08/04 07:27:44;;;;;;;1.70;1.00;;;17.00;95.20;;;;;;5084386;28;20044;-76
2021/08/04 07:30:11;;;;;;;2.67;1.02;;;17.10;95.10;;;;;;5079399;28;20039;-76
2021/08/04 07:32:38;;;;;;;2.30;0.90;;;17.10;95.10;;;;;;5078191;28;20040;-76
2021/08/04 07:35:05;;;;;;;2.40;1.08;;;17.10;95.30;;;;;;5084003;28;20315;-77
2021/08/04 07:37:32;;;;;;;2.78;1.02;;;17.20;95.30;;;;;;5062937;28;20081;-77
2021/08/04 07:40:01;;;;;;;2.13;1.10;;;17.20;95.10;;;;;;5081336;28;20037;-76
2021/08/04 07:42:27;;;;;;;2.93;1.00;;;17.20;95.10;;;;;;5073311;28;20032;-76
2021/08/04 07:44:55;;;;;;;1.70;0.82;;;17.20;94.50;;;;;;5058138;28;20286;-74
2021/08/04 07:47:25;;;;;;;1.70;1.00;;;17.30;94.50;;;;;;5069592;28;20133;-74
2021/08/04 07:49:51;;;;;;;1.30;0.80;;;17.40;94.10;;;;;;5082092;28;20068;-74
2021/08/04 07:52:17;;;;;;;1.20;0.90;;;17.40;93.70;;;;;;5078779;28;20158;-75
2021/08/04 07:54:43;;;;;;;1.27;0.88;;;17.40;93.90;;;;;;5076069;28;20048;-75
2021/08/04 07:57:11;;;;;;;2.75;1.10;;;17.60;94.00;;;;;;5076642;28;20040;-75
2021/08/04 07:59:37;;;;;;;2.40;1.02;;;17.60;93.10;;;;;;5077116;28;20040;-76
2021/08/04 08:02:04;;;;;;;2.80;1.05;;;17.70;92.50;;;;;;5077581;28;20397;-76
2021/08/04 08:04:31;;;;;;;1.67;0.90;;;17.70;92.50;;;;;;5062375;28;20109;-75
2021/08/04 08:06:58;;;;;;;2.70;0.98;;;17.70;92.90;;;;;;5062245;28;20111;-75
2021/08/04 08:09:25;;;;;;;3.17;0.80;;;17.70;92.90;;;;;;5077511;28;20059;-78
2021/08/04 08:11:55;;;;;;;2.22;0.90;;;17.80;92.70;;;;;;5057760;28;20071;-75
2021/08/04 08:14:21;;;;;;;1.65;1.00;;;17.90;92.10;;;;;;5079976;28;20040;-76
2021/08/04 08:16:47;;;;;;;3.65;0.98;;;17.90;92.00;;;;;;5059686;28;20051;-76
2021/08/04 08:19:15;;;;;;;2.08;0.90;;;18.00;91.30;;;;;;5078902;28;20032;-74
2021/08/04 08:21:41;;;;;;;1.95;0.80;;;18.10;91.70;;;;;;5078235;28;20039;-73
2021/08/04 08:24:07;;;;;;;2.03;0.98;;;18.10;91.70;;;;;;5079209;28;20444;-73
2021/08/04 08:26:34;;;;;;;2.85;0.90;;;18.20;91.90;;;;;;5077399;28;20086;-74
2021/08/04 08:29:00;;;;;;;1.38;1.00;;;18.30;91.90;;;;;;5081912;28;20650;-73
2021/08/04 08:31:27;;;;;;;2.65;1.27;;;18.40;91.20;;;;;;5080277;28;20040;-75
2021/08/04 08:33:53;;;;;;;1.70;0.80;;;18.50;90.70;;;;;;5073935;28;20058;-74
2021/08/04 08:36:18;;;;;;;3.40;1.20;;;18.70;90.90;;;;;;5079152;28;20551;-73
2021/08/04 08:38:44;;;;;;;2.33;1.00;;;18.80;91.20;;;;;;5074092;28;20478;-74
2021/08/04 08:41:11;;;;;;;2.20;0.80;;;19.00;90.30;;;;;;5069686;28;20036;-73
2021/08/04 08:43:37;;;;;;;2.78;1.08;;;19.00;90.10;;;;;;5061492;28;20085;-73
2021/08/04 08:46:04;;;;;;;1.88;1.10;;;19.00;90.40;;;;;;5080159;28;20040;-73
2021/08/04 08:48:30;;;;;;;2.42;1.15;;;19.00;90.40;;;;;;5078173;28;20071;-74
2021/08/04 08:50:57;;;;;;;1.40;0.90;;;19.10;90.40;;;;;;5053046;28;20106;-75
2021/08/04 08:53:23;;;;;;;2.40;1.27;;;19.30;90.40;;;;;;5071212;28;20143;-74
2021/08/04 08:55:49;;;;;;;1.67;1.20;;;19.40;88.70;;;;;;5076483;28;20186;-75
2021/08/04 08:58:16;;;;;;;3.60;1.30;;;19.50;87.80;;;;;;5069736;28;20046;-74
2021/08/04 09:00:42;;;;;;;1.30;1.00;;;19.50;88.00;;;;;;5072115;28;20062;-74
2021/08/04 09:03:12;;;;;;;2.90;1.73;;;19.60;86.70;;;;;;5076813;28;20115;-74
2021/08/04 09:05:53;;;;;;;3.83;1.30;;;19.60;87.80;;;;;;5078486;28;20059;-75
2021/08/04 09:08:26;;;;;;;2.15;1.30;;;19.60;88.30;;;;;;5075965;28;20036;-77
2021/08/04 09:10:52;;;;;;;3.08;1.40;;;19.70;89.80;;;;;;5076129;28;20509;-75
2021/08/04 09:13:28;;;;;;;1.50;1.05;;;19.90;89.90;;;;;;5075031;28;20068;-75
2021/08/04 09:16:06;;;;;;;2.22;1.33;;;20.00;89.10;;;;;;5077309;28;20051;-73
2021/08/04 09:18:39;;;;;;;1.65;1.25;;;20.20;88.50;;;;;;5075425;28;20063;-74
2021/08/04 09:21:06;;;;;;;2.85;1.15;;;20.30;87.50;;;;;;5077246;28;20132;-74
2021/08/04 09:23:32;;;;;;;2.70;1.67;;;20.30;86.50;;;;;;5073533;28;20616;-74
2021/08/04 09:26:12;;;;;;;2.47;1.40;;;20.30;85.40;;;;;;5074156;28;20143;-75
2021/08/04 09:28:57;;;;;;;2.92;1.40;;;20.30;85.20;;;;;;5066047;28;20036;-76
2021/08/04 09:31:54;;;;;;;3.08;1.60;;;20.30;86.40;;;;;;5067952;28;20036;-74
2021/08/04 09:34:40;;;;;;;3.25;1.70;;;20.40;85.30;;;;;;5069546;28;20411;-73
2021/08/04 09:37:12;;;;;;;2.80;1.27;;;20.40;84.00;;;;;;5078943;28;20631;-73
2021/08/04 09:39:54;;;;;;;3.42;1.20;;;20.40;85.40;;;;;;5053468;28;20075;-74
2021/08/04 09:42:21;;;;;;;2.42;1.23;;;20.40;84.30;;;;;;5080576;28;20420;-74
2021/08/04 09:44:58;;;;;;;3.15;1.20;;;20.50;84.70;;;;;;5075556;28;20045;-74
2021/08/04 09:47:25;;;;;;;3.20;1.90;;;20.40;85.20;;;;;;5073414;28;20032;-75
2021/08/04 09:50:00;;;;;;;2.65;1.73;;;20.40;84.40;;;;;;5072621;28;20093;-75
2021/08/04 09:52:26;;;;;;;3.28;1.55;;;20.50;84.20;;;;;;5071544;28;20055;-76
2021/08/04 09:54:52;;;;;;;2.90;1.50;;;20.60;83.70;;;;;;5076740;28;20043;-74
2021/08/04 09:57:19;;;;;;;3.90;1.70;;;20.50;83.80;;;;;;5074069;28;20094;-74
2021/08/04 10:00:07;;;;;;;4.32;1.73;;;20.30;84.30;;;;;;5063776;28;20044;-75
2021/08/04 10:02:34;;;;;;;3.55;1.80;;;20.10;85.60;;;;;;5074964;28;20045;-73
2021/08/04 10:05:23;;;;;;;3.20;1.95;;;19.90;87.20;;;;;;5067167;28;20086;-74
2021/08/04 10:08:10;;;;;;;3.33;1.63;;;19.90;86.60;;;;;;5043053;28;20048;-74
2021/08/04 10:10:55;;;;;;;3.47;1.50;;;20.00;87.70;;;;;;5055956;28;20437;-73
2021/08/04 10:13:28;;;;;;;4.50;2.03;;;20.10;87.80;;;;;;5069711;28;20046;-74
2021/08/04 10:15:59;;;;;;;2.92;2.00;;;20.30;86.50;;;;;;5069465;28;20395;-74
2021/08/04 10:18:31;;;;;;;3.28;1.70;;;20.60;86.60;;;;;;5073026;28;20040;-73
2021/08/04 10:21:00;;;;;;;3.00;1.90;;;20.80;85.00;;;;;;5066282;28;20062;-74
2021/08/04 10:23:29;;;;;;;2.97;1.90;;;20.70;83.80;;;;;;5047938;28;20537;-74
2021/08/04 10:25:57;;;;;;;3.55;1.70;;;20.50;85.50;;;;;;5075573;28;20044;-74
2021/08/04 10:28:27;;;;;;;3.05;1.42;;;20.70;86.90;;;;;;5086816;28;20089;-74
2021/08/04 10:30:54;;;;;;;2.90;1.73;;;20.80;87.80;;;;;;5072308;28;20036;-74
2021/08/04 10:33:19;;;;;;;2.42;1.77;;;20.80;86.70;;;;;;5081784;28;20123;-74
2021/08/04 10:35:51;;;;;;;4.15;1.48;;;20.70;85.90;;;;;;5062155;28;20119;-73
2021/08/04 10:38:20;;;;;;;3.63;1.70;;;20.50;86.30;;;;;;5081349;28;20052;-73
2021/08/04 10:41:07;;;;;;;2.22;1.40;;;20.40;86.40;;;;;;5071923;28;20097;-74
2021/08/04 10:43:55;;;;;;;2.40;1.63;;;20.20;86.00;;;;;;5062593;28;20040;-74
2021/08/04 10:46:32;;;;;;;2.80;1.75;;;20.10;87.20;;;;;;5073090;28;20045;-74
2021/08/04 10:49:30;;;;;;;4.07;1.73;;;20.20;87.60;;;;;;5072027;28;20276;-73
2021/08/04 10:51:56;;;;;;;2.88;1.30;;;20.40;86.30;;;;;;5074117;28;20040;-74
2021/08/04 10:54:23;;;;;;;3.03;1.75;;;20.60;86.20;;;;;;5070819;28;20036;-73
2021/08/04 10:56:52;;;;;;;3.28;2.17;;;20.70;83.90;;;;;;5073182;28;20048;-74
2021/08/04 10:59:35;;;;;;;2.65;2.05;;;20.80;84.30;;;;;;5075866;28;20483;-73
2021/08/04 11:02:01;;;;;;;3.38;2.33;;;20.70;84.30;;;;;;5071264;28;20043;-74
2021/08/04 11:04:30;;;;;;;2.67;1.40;;;20.70;84.90;;;;;;5074773;28;20040;-74
2021/08/04 11:07:12;;;;;;;4.40;1.70;;;20.60;84.50;;;;;;5070706;28;20042;-73
2021/08/04 11:09:48;;;;;;;1.95;1.38;;;20.40;84.50;;;;;;5076340;28;20048;-74
2021/08/04 11:12:19;;;;;;;3.13;1.70;;;20.40;86.60;;;;;;5073286;28;20040;-74
2021/08/04 11:14:49;;;;;;;2.92;1.73;;;20.70;88.40;;;;;;5074251;28;20231;-74
2021/08/04 11:17:17;;;;;;;4.78;1.70;;;21.00;88.30;;;;;;5079269;28;21082;-75
2021/08/04 11:22:33;;;;;;;3.05;2.40;;;21.10;83.20;;;;;;5068917;28;20036;-75
2021/08/04 11:25:09;;;;;;;2.40;2.00;;;20.90;83.10;;;;;;5054345;28;20159;-75
2021/08/04 11:27:58;;;;;;;4.72;2.30;;;20.80;84.10;;;;;;5073808;28;20091;-74
2021/08/04 11:30:28;;;;;;;3.57;2.10;;;20.90;85.30;;;;;;5063699;28;20040;-77
2021/08/04 11:33:13;;;;;;;;;;;21.10;84.90;;;;;;5078728;28;20292;-78
2021/08/04 11:35:41;;;;;;;3.50;1.92;;;21.50;84.00;;;;;;5071950;28;19920;-78
2021/08/04 11:38:07;;;;;;;3.47;1.38;;;21.60;79.80;;;;;;5077275;28;20111;-77
2021/08/04 11:40:33;;;;;;;4.65;1.92;;;21.70;81.60;;;;;;5077288;28;20514;-78
2021/08/04 11:42:59;;;;;;;3.65;1.48;;;21.70;80.20;;;;;;5070599;28;20040;-75
2021/08/04 11:45:26;;;;;;;2.10;1.40;;;21.70;81.00;;;;;;5045234;28;20037;-76
2021/08/04 11:47:52;;;;;;;2.40;1.40;;;21.50;79.80;;;;;;5040755;28;20052;-78
2021/08/04 11:50:17;;;;;;;2.53;1.40;;;21.50;79.90;;;;;;5079500;28;20062;-79
2021/08/04 11:52:43;;;;;;;2.70;1.40;;;21.70;79.00;;;;;;5078523;28;20462;-79
2021/08/04 11:55:12;;;;;;;3.17;1.48;;;21.80;77.10;;;;;;5059499;28;20060;-74
2021/08/04 11:57:46;;;;;;;2.50;1.48;;;22.00;78.10;;;;;;5071134;28;20402;-76
2021/08/04 12:00:27;;;;;;;4.65;2.08;;;22.20;78.00;;;;;;5071447;28;20041;-77
2021/08/04 12:02:54;;;;;;;2.42;1.48;;;22.30;72.60;;;;;;5077092;28;20091;-81
2021/08/04 12:05:20;;;;;;;3.28;1.95;;;22.40;75.80;;;;;;5076388;28;20048;-75
2021/08/04 12:07:46;;;;;;;3.13;2.08;;;22.40;74.60;;;;;;5053091;28;20033;-75
2021/08/04 12:10:21;;;;;;;3.00;2.00;;;22.30;75.50;;;;;;5065200;28;20387;-75
2021/08/04 12:12:50;;;;;;;2.70;1.50;;;22.20;74.90;;;;;;5072747;28;20040;-74
2021/08/04 12:15:26;;;;;;;3.40;2.08;;;22.00;77.40;;;;;;5069769;28;20041;-73
2021/08/04 12:18:01;;;;;;;6.70;1.80;;;22.20;76.20;;;;;;5073976;28;20040;-73
2021/08/04 12:20:29;;;;;;;3.40;1.50;;;22.30;72.90;;;;;;5073876;28;20036;-74
2021/08/04 12:23:04;;;;;;;2.70;1.48;;;22.30;72.40;;;;;;5070324;28;20033;-74
2021/08/04 12:25:31;;;;;;;3.78;1.50;;;22.00;73.20;;;;;;5069362;28;20554;-74
2021/08/04 12:27:59;;;;;;;3.15;1.70;;;21.80;75.70;;;;;;5069386;28;20040;-74
2021/08/04 12:30:27;;;;;;;3.28;1.35;;;21.60;76.50;;;;;;5064334;28;20542;-74
2021/08/04 12:33:00;;;;;;;4.07;1.58;;;21.70;77.40;;;;;;5078295;28;20032;-75
2021/08/04 12:35:37;;;;;;;2.50;1.67;;;22.00;76.30;;;;;;5075647;28;20170;-74
2021/08/04 12:38:10;;;;;;;4.07;1.85;;;22.30;74.00;;;;;;5076733;28;20054;-75
2021/08/04 12:40:37;;;;;;;2.90;1.60;;;22.40;66.60;;;;;;5073211;28;20046;-74
2021/08/04 12:43:04;;;;;;;2.63;1.70;;;22.30;68.70;;;;;;5070171;28;20395;-74
2021/08/04 12:45:30;;;;;;;3.38;1.65;;;22.10;73.40;;;;;;5074961;28;20036;-75
2021/08/04 12:48:02;;;;;;;3.88;1.73;;;22.10;75.10;;;;;;5075147;28;20067;-76
2021/08/04 12:50:48;;;;;;;3.45;1.48;;;22.30;72.10;;;;;;5076287;28;20151;-75
2021/08/04 12:53:24;;;;;;;4.93;1.65;;;22.40;73.80;;;;;;5077285;28;20056;-75
2021/08/04 12:56:05;;;;;;;4.15;1.55;;;22.40;72.50;;;;;;5079767;28;20032;-75
2021/08/04 12:59:01;;;;;;;2.90;1.70;;;22.20;73.10;;;;;;5073650;28;20036;-75
2021/08/04 13:01:36;;;;;;;5.93;1.85;;;22.10;76.70;;;;;;5073051;28;20929;-75